createdAt,value
2023-05-19T00:00:17.469Z,197.65
2023-05-19T00:01:17.610Z,198.15
2023-05-19T00:02:17.583Z,197.84
2023-05-19T00:03:17.942Z,197.71
2023-05-19T00:04:17.644Z,198.16
2023-05-19T00:05:17.678Z,200.11
2023-05-19T00:06:17.830Z,196.90
2023-05-19T00:07:17.755Z,195.57
2023-05-19T00:08:17.758Z,195.10
2023-05-19T00:09:17.779Z,196.14
2023-05-19T00:11:24.807Z,25.00
2023-05-19T00:12:24.803Z,25.00
2023-05-19T00:13:24.794Z,25.00
2023-05-19T00:14:24.790Z,25.00
2023-05-19T00:15:24.804Z,25.00
2023-05-19T00:16:24.939Z,34.40
2023-05-19T00:17:24.802Z,35.12
2023-05-19T00:18:24.771Z,40.15
2023-05-19T00:19:25.142Z,40.17
2023-05-19T00:20:24.786Z,39.46
2023-05-19T00:21:24.747Z,49.54
2023-05-19T00:22:24.726Z,49.56
2023-05-19T00:23:24.752Z,61.69
2023-05-19T00:24:24.720Z,64.36
2023-05-19T00:25:24.707Z,61.77
2023-05-19T00:26:24.711Z,53.48
2023-05-19T00:27:24.708Z,64.54
2023-05-19T00:28:24.695Z,70.94
2023-05-19T00:29:24.680Z,70.67
2023-05-19T00:30:24.685Z,64.88
2023-05-19T00:31:24.703Z,65.61
2023-05-19T00:32:24.729Z,74.77
2023-05-19T00:33:24.651Z,84.84
2023-05-19T00:34:24.650Z,83.05
2023-05-19T00:35:24.649Z,87.69
2023-05-19T00:36:24.642Z,92.00
2023-05-19T00:37:24.639Z,102.19
2023-05-19T00:38:24.623Z,110.45
2023-05-19T00:39:24.608Z,123.07
2023-05-19T00:40:24.590Z,133.37
2023-05-19T00:41:24.625Z,135.78
2023-05-19T00:42:24.597Z,143.49
2023-05-19T00:43:24.582Z,149.29
2023-05-19T00:44:24.586Z,160.08
2023-05-19T00:45:24.601Z,165.82
2023-05-19T00:46:24.694Z,152.95
2023-05-19T00:47:24.757Z,142.70
2023-05-19T00:48:24.756Z,130.02
2023-05-19T00:49:24.792Z,126.52
2023-05-19T00:50:24.847Z,131.42
2023-05-19T00:51:24.925Z,132.39
2023-05-19T00:52:24.981Z,139.33
2023-05-19T00:53:25.051Z,133.77
2023-05-19T00:54:25.086Z,134.44
2023-05-19T00:55:25.166Z,131.65
2023-05-19T00:56:25.216Z,131.18
2023-05-19T00:57:25.286Z,134.83
2023-05-19T00:58:25.333Z,137.94
2023-05-19T00:59:25.392Z,145.50
2023-05-19T01:00:25.474Z,149.45
2023-05-19T01:01:25.540Z,151.03
2023-05-19T01:02:25.667Z,155.96
2023-05-19T01:03:25.683Z,146.49
2023-05-19T01:04:25.681Z,144.36
2023-05-19T01:05:25.714Z,151.59
2023-05-19T01:06:25.760Z,165.42
2023-05-19T01:07:25.812Z,165.79
2023-05-19T01:08:25.873Z,161.12
2023-05-19T01:09:25.897Z,172.07
2023-05-19T01:10:25.968Z,170.92
2023-05-19T01:11:26.016Z,164.90
2023-05-19T01:12:26.056Z,164.99
2023-05-19T01:13:26.088Z,168.90
2023-05-19T01:14:26.165Z,173.95
2023-05-19T01:15:26.217Z,172.99
2023-05-19T01:16:26.349Z,178.12
2023-05-19T01:17:26.371Z,187.09
2023-05-19T01:18:26.349Z,193.00
2023-05-19T01:19:26.508Z,197.19
2023-05-19T01:20:26.452Z,200.92
2023-05-19T01:21:26.486Z,201.88
2023-05-19T01:22:26.501Z,201.63
2023-05-19T01:23:26.521Z,203.05
2023-05-19T01:24:26.562Z,204.32
2023-05-19T01:25:26.583Z,211.66
2023-05-19T01:26:26.627Z,216.74
2023-05-19T01:27:26.677Z,215.46
2023-05-19T01:28:26.754Z,220.08
2023-05-19T01:29:26.794Z,221.51
2023-05-19T01:30:26.814Z,223.80
2023-05-19T01:31:26.890Z,228.82
2023-05-19T01:32:26.873Z,234.05
2023-05-19T01:33:26.863Z,238.58
2023-05-19T01:34:26.868Z,243.48
2023-05-19T01:35:26.866Z,239.26
2023-05-19T01:36:26.870Z,246.89
2023-05-19T01:37:26.860Z,248.90
2023-05-19T01:38:26.861Z,249.54
2023-05-19T01:39:26.877Z,249.58
2023-05-19T01:40:26.911Z,250.00
2023-05-19T01:41:26.900Z,245.92
2023-05-19T01:42:26.940Z,247.80
2023-05-19T01:43:26.957Z,250.25
2023-05-19T01:44:26.960Z,249.95
2023-05-19T01:45:26.946Z,249.99
2023-05-19T01:46:27.097Z,250.00
2023-05-19T01:47:27.008Z,250.00
2023-05-19T01:48:26.952Z,250.00
2023-05-19T01:49:26.965Z,249.51
2023-05-19T01:50:26.975Z,249.71
2023-05-19T01:51:26.954Z,246.82
2023-05-19T01:52:26.938Z,241.00
2023-05-19T01:53:26.959Z,235.45
2023-05-19T01:54:26.951Z,235.70
2023-05-19T01:55:26.949Z,228.89
2023-05-19T01:56:26.953Z,218.58
2023-05-19T01:57:26.992Z,217.48
2023-05-19T01:58:27.020Z,208.91
2023-05-19T01:59:27.041Z,201.89
2023-05-19T02:00:27.101Z,191.75
2023-05-19T02:01:27.172Z,182.76
2023-05-19T02:02:27.170Z,177.30
2023-05-19T02:03:27.090Z,175.30
2023-05-19T02:04:27.154Z,183.36
2023-05-19T02:05:27.106Z,189.31
2023-05-19T02:06:27.139Z,190.91
2023-05-19T02:07:27.117Z,186.23
2023-05-19T02:08:27.121Z,179.02
2023-05-19T02:09:27.108Z,177.84
2023-05-19T02:10:27.134Z,183.70
2023-05-19T02:11:27.096Z,187.47
2023-05-19T02:12:27.139Z,190.24
2023-05-19T02:13:27.157Z,193.05
2023-05-19T02:14:27.173Z,194.48
2023-05-19T02:15:27.184Z,196.96
2023-05-19T02:16:27.209Z,202.95
2023-05-19T02:17:27.259Z,211.23
2023-05-19T02:18:27.233Z,208.26
2023-05-19T02:19:27.285Z,208.53
2023-05-19T02:20:27.276Z,204.13
2023-05-19T02:21:27.287Z,206.05
2023-05-19T02:22:27.307Z,210.29
2023-05-19T02:23:27.275Z,206.36
2023-05-19T02:24:27.341Z,208.20
2023-05-19T02:25:27.310Z,209.26
2023-05-19T02:26:27.319Z,210.69
2023-05-19T02:27:27.323Z,211.98
2023-05-19T02:28:27.314Z,215.33
2023-05-19T02:29:27.310Z,222.28
2023-05-19T02:30:27.315Z,217.30
2023-05-19T02:31:27.335Z,219.02
2023-05-19T02:32:27.329Z,216.08
2023-05-19T02:33:27.313Z,217.94
2023-05-19T02:34:27.307Z,220.57
2023-05-19T02:35:27.315Z,220.11
2023-05-19T02:36:27.315Z,215.74
2023-05-19T02:37:27.303Z,216.24
2023-05-19T02:38:27.302Z,218.67
2023-05-19T02:39:27.306Z,220.57
2023-05-19T02:40:27.342Z,222.85
2023-05-19T02:41:27.335Z,219.71
2023-05-19T02:42:27.349Z,218.56
2023-05-19T02:43:27.326Z,219.86
2023-05-19T02:44:27.335Z,215.98
2023-05-19T02:45:27.326Z,217.92
2023-05-19T02:46:27.339Z,223.31
2023-05-19T02:47:27.389Z,220.50
2023-05-19T02:48:27.328Z,222.82
2023-05-19T02:49:27.329Z,223.83
2023-05-19T02:50:27.365Z,224.25
2023-05-19T02:51:27.335Z,235.22
2023-05-19T02:52:27.335Z,237.57
2023-05-19T02:53:27.347Z,240.27
2023-05-19T02:54:27.354Z,246.02
2023-05-19T02:55:27.339Z,245.98
2023-05-19T02:56:27.361Z,246.63
2023-05-19T02:57:27.363Z,244.73
2023-05-19T02:58:27.403Z,243.77
2023-05-19T02:59:27.396Z,243.88
2023-05-19T03:00:27.418Z,246.03
2023-05-19T03:01:27.413Z,249.39
2023-05-19T03:02:27.505Z,247.42
2023-05-19T03:03:27.503Z,246.06
2023-05-19T03:04:27.496Z,244.43
2023-05-19T03:05:27.497Z,244.52
2023-05-19T03:06:27.479Z,249.60
2023-05-19T03:07:27.514Z,250.40
2023-05-19T03:08:27.521Z,249.98
2023-05-19T03:09:27.532Z,249.78
2023-05-19T03:10:27.556Z,248.68
2023-05-19T03:11:27.568Z,250.00
2023-05-19T03:12:27.596Z,249.09
2023-05-19T03:13:27.578Z,248.03
2023-05-19T03:14:27.588Z,243.81
2023-05-19T03:15:27.619Z,238.42
2023-05-19T03:16:27.645Z,234.55
2023-05-19T03:17:27.714Z,234.64
2023-05-19T03:18:27.687Z,236.21
2023-05-19T03:19:27.821Z,238.04
2023-05-19T03:20:27.773Z,233.87
2023-05-19T03:21:27.798Z,227.97
2023-05-19T03:22:27.833Z,233.88
2023-05-19T03:23:27.854Z,236.25
2023-05-19T03:24:27.843Z,236.95
2023-05-19T03:25:27.869Z,245.77
2023-05-19T03:26:27.880Z,246.19
2023-05-19T03:27:27.890Z,250.54
2023-05-19T03:28:27.887Z,248.53
2023-05-19T03:29:27.890Z,250.00
2023-05-19T03:30:27.919Z,244.82
2023-05-19T03:31:27.912Z,245.07
2023-05-19T03:32:27.974Z,249.76
2023-05-19T03:33:28.080Z,248.56
2023-05-19T03:34:27.952Z,247.85
2023-05-19T03:35:27.966Z,250.00
2023-05-19T03:36:27.981Z,249.41
2023-05-19T03:37:28.020Z,248.22
2023-05-19T03:38:28.022Z,249.18
2023-05-19T03:39:28.052Z,243.90
2023-05-19T03:40:28.043Z,244.10
2023-05-19T03:41:28.560Z,245.82
2023-05-19T03:42:28.099Z,245.42
2023-05-19T03:43:28.114Z,244.44
2023-05-19T03:44:28.154Z,240.55
2023-05-19T03:45:28.197Z,238.40
2023-05-19T03:46:28.513Z,236.84
2023-05-19T03:47:28.257Z,237.51
2023-05-19T03:48:28.291Z,239.98
2023-05-19T03:49:28.301Z,249.41
2023-05-19T03:50:28.349Z,246.61
2023-05-19T03:51:28.376Z,247.03
2023-05-19T03:52:28.416Z,250.00
2023-05-19T03:53:28.433Z,250.00
2023-05-19T03:54:28.453Z,250.31
2023-05-19T03:55:28.456Z,248.49
2023-05-19T03:56:28.480Z,249.42
2023-05-19T03:57:28.495Z,249.75
2023-05-19T03:58:28.530Z,250.00
2023-05-19T03:59:28.532Z,250.00
2023-05-19T04:00:28.546Z,249.93
2023-05-19T04:01:28.580Z,246.53
2023-05-19T04:02:28.679Z,241.73
2023-05-19T04:03:28.658Z,240.32
2023-05-19T04:04:28.717Z,237.75
2023-05-19T04:05:28.655Z,231.97
2023-05-19T04:06:28.672Z,225.53
2023-05-19T04:07:28.703Z,222.25
2023-05-19T04:08:28.721Z,220.03
2023-05-19T04:09:28.754Z,212.04
2023-05-19T04:10:28.786Z,212.78
2023-05-19T04:11:28.796Z,211.68
2023-05-19T04:12:28.805Z,210.11
2023-05-19T04:13:28.855Z,211.27
2023-05-19T04:14:28.870Z,213.15
2023-05-19T04:15:29.001Z,216.45
2023-05-19T04:16:28.988Z,214.73
2023-05-19T04:17:28.951Z,213.68
2023-05-19T04:18:29.372Z,210.96
2023-05-19T04:19:29.024Z,209.40
2023-05-19T04:20:28.944Z,204.07
2023-05-19T04:21:28.947Z,196.81
2023-05-19T04:22:28.986Z,195.60
2023-05-19T04:23:28.999Z,194.87
2023-05-19T04:24:28.993Z,191.87
2023-05-19T04:25:29.028Z,187.25
2023-05-19T04:26:29.053Z,186.74
2023-05-19T04:27:29.083Z,186.18
2023-05-19T04:28:29.084Z,185.73
2023-05-19T04:29:29.082Z,191.06
2023-05-19T04:30:29.132Z,189.15
2023-05-19T04:31:29.137Z,192.57
2023-05-19T04:32:29.178Z,196.33
2023-05-19T04:33:29.149Z,201.30
2023-05-19T04:34:29.152Z,199.28
2023-05-19T04:35:29.134Z,196.28
2023-05-19T04:36:29.161Z,188.90
2023-05-19T04:37:29.151Z,186.10
2023-05-19T04:38:29.175Z,187.50
2023-05-19T04:39:29.190Z,186.31
2023-05-19T04:40:29.190Z,185.66
2023-05-19T04:41:29.244Z,190.05
2023-05-19T04:42:29.257Z,194.77
2023-05-19T04:43:29.285Z,197.69
2023-05-19T04:44:29.284Z,201.04
2023-05-19T04:45:29.311Z,202.56
2023-05-19T04:46:29.333Z,195.28
2023-05-19T04:47:52.239Z,25.00
2023-05-19T04:48:52.137Z,25.00
2023-05-19T04:49:52.116Z,25.00
2023-05-19T04:50:52.127Z,25.00
2023-05-19T04:51:53.367Z,25.00
2023-05-19T04:52:52.092Z,25.00
2023-05-19T04:53:52.120Z,25.00
2023-05-19T04:54:52.079Z,25.00
2023-05-19T04:55:52.194Z,25.00
2023-05-19T04:56:52.089Z,25.00
2023-05-19T04:57:52.075Z,35.37
2023-05-19T04:58:52.075Z,50.05
2023-05-19T04:59:52.056Z,28.16
2023-05-19T05:00:52.049Z,25.71
2023-05-19T05:01:52.085Z,34.28
2023-05-19T05:02:52.110Z,25.00
2023-05-19T05:03:52.038Z,26.43
2023-05-19T05:04:52.016Z,36.46
2023-05-19T05:05:52.004Z,30.79
2023-05-19T05:06:52.047Z,21.35
2023-05-19T05:09:11.284Z,25.00
2023-05-19T05:10:11.274Z,25.00
2023-05-19T05:11:11.271Z,25.00
2023-05-19T05:12:11.255Z,25.00
2023-05-19T05:13:11.998Z,25.00
2023-05-19T05:14:11.254Z,25.00
2023-05-19T05:15:11.251Z,23.58
2023-05-19T05:16:11.331Z,25.00
2023-05-19T05:17:11.229Z,25.00
2023-05-19T05:18:11.321Z,27.37
2023-05-19T05:19:11.263Z,31.36
2023-05-19T05:20:11.222Z,35.62
2023-05-19T05:21:11.228Z,30.26
2023-05-19T05:22:11.219Z,35.51
2023-05-19T05:23:11.191Z,41.43
2023-05-19T05:24:11.169Z,31.88
2023-05-19T05:25:11.182Z,43.14
2023-05-19T05:26:11.203Z,38.33
2023-05-19T05:27:11.149Z,43.68
2023-05-19T05:28:11.157Z,45.16
2023-05-19T05:30:30.448Z,25.00
2023-05-19T05:31:30.443Z,25.00
2023-05-19T05:32:30.496Z,25.00
2023-05-19T05:33:30.484Z,25.00
2023-05-19T05:34:30.414Z,25.00
2023-05-19T05:35:30.536Z,26.23
2023-05-19T05:36:30.390Z,32.29
2023-05-19T05:37:30.380Z,43.10
2023-05-19T05:38:30.388Z,48.97
2023-05-19T05:39:30.403Z,65.39
2023-05-19T05:40:30.385Z,79.91
2023-05-19T05:41:30.383Z,90.21
2023-05-19T05:42:30.365Z,98.47
2023-05-19T05:43:30.348Z,101.81
2023-05-19T05:44:30.365Z,91.44
2023-05-19T05:45:30.465Z,81.19
2023-05-19T05:46:30.406Z,74.16
2023-05-19T05:47:30.379Z,60.96
2023-05-19T05:48:30.321Z,60.14
2023-05-19T05:49:30.327Z,61.50
2023-05-19T05:50:30.320Z,64.01
2023-05-19T05:51:30.360Z,59.37
2023-05-19T05:52:30.318Z,65.05
2023-05-19T05:53:30.290Z,75.82
2023-05-19T05:54:30.276Z,84.38
2023-05-19T05:55:30.474Z,80.98
2023-05-19T05:56:30.292Z,87.15
2023-05-19T05:57:30.289Z,99.77
2023-05-19T05:58:30.270Z,116.18
2023-05-19T05:59:30.275Z,132.07
2023-05-19T06:00:30.478Z,128.78
2023-05-19T06:01:30.355Z,128.56
2023-05-19T06:02:30.441Z,117.03
2023-05-19T06:03:30.449Z,103.96
2023-05-19T06:04:30.484Z,111.41
2023-05-19T06:05:30.548Z,120.28
2023-05-19T06:06:30.556Z,115.41
2023-05-19T06:07:30.596Z,113.82
2023-05-19T06:08:30.634Z,116.95
2023-05-19T06:09:30.666Z,125.99
2023-05-19T06:10:30.808Z,133.11
2023-05-19T06:11:30.740Z,136.32
2023-05-19T06:12:30.797Z,137.51
2023-05-19T06:13:30.813Z,150.60
2023-05-19T06:14:30.819Z,152.58
2023-05-19T06:15:30.877Z,147.30
2023-05-19T06:16:30.946Z,116.29
2023-05-19T06:17:30.905Z,95.32
2023-05-19T06:18:30.889Z,100.25
2023-05-19T06:19:30.978Z,115.66
2023-05-19T06:20:31.148Z,121.08
2023-05-19T06:21:30.973Z,124.00
2023-05-19T06:22:30.969Z,114.32
2023-05-19T06:23:30.990Z,113.19
2023-05-19T06:24:31.034Z,111.12
2023-05-19T06:25:31.142Z,115.38
2023-05-19T06:26:31.030Z,111.29
2023-05-19T06:27:32.628Z,112.62
2023-05-19T06:28:31.047Z,107.46
2023-05-19T06:29:31.040Z,112.09
2023-05-19T06:30:31.184Z,121.50
2023-05-19T06:31:31.107Z,123.77
2023-05-19T06:32:31.023Z,129.72
2023-05-19T06:33:31.022Z,132.79
2023-05-19T06:34:30.985Z,131.22
2023-05-19T06:35:31.002Z,126.50
2023-05-19T06:36:31.005Z,109.62
2023-05-19T06:37:30.978Z,107.10
2023-05-19T06:38:30.973Z,94.00
2023-05-19T06:39:30.988Z,95.10
2023-05-19T06:40:31.158Z,101.30
2023-05-19T06:41:30.969Z,109.41
2023-05-19T06:42:30.964Z,112.77
2023-05-19T06:43:30.932Z,117.45
2023-05-19T06:44:30.916Z,105.89
2023-05-19T06:45:30.910Z,100.73
2023-05-19T06:46:31.012Z,102.60
2023-05-19T06:47:30.943Z,106.25
2023-05-19T06:48:30.893Z,97.63
2023-05-19T06:49:30.886Z,68.92
2023-05-19T06:50:31.184Z,44.22
2023-05-19T06:51:30.891Z,24.95
2023-05-19T06:52:30.877Z,25.90
2023-05-19T06:53:30.867Z,38.82
2023-05-19T06:54:30.844Z,43.50
2023-05-19T06:55:30.856Z,47.83
2023-05-19T06:56:30.842Z,44.03
2023-05-19T06:57:30.852Z,50.87
2023-05-19T06:58:30.836Z,40.75
2023-05-19T06:59:30.845Z,40.88
2023-05-19T07:00:30.835Z,53.40
2023-05-19T07:01:30.948Z,58.31
2023-05-19T07:02:30.998Z,63.54
2023-05-19T07:03:30.898Z,75.20
2023-05-19T07:04:30.821Z,80.90
2023-05-19T07:05:30.782Z,70.34
2023-05-19T07:06:30.808Z,75.52
2023-05-19T07:07:30.801Z,82.05
2023-05-19T07:08:30.763Z,70.23
2023-05-19T07:09:30.769Z,45.28
2023-05-19T07:10:31.023Z,9.48
2023-05-19T07:11:30.742Z,27.10
2023-05-19T07:12:30.758Z,34.92
2023-05-19T07:13:30.740Z,49.60
2023-05-19T07:14:30.718Z,37.87
2023-05-19T07:15:30.729Z,21.02
2023-05-19T07:16:30.805Z,10.85
2023-05-19T07:17:30.727Z,25.00
2023-05-19T07:18:30.699Z,25.00
2023-05-19T07:19:30.766Z,8.45
2023-05-19T07:20:30.871Z,0.00
2023-05-19T07:21:30.670Z,12.76
2023-05-19T07:22:30.673Z,27.97
2023-05-19T07:23:30.669Z,27.18
2023-05-19T07:24:30.684Z,42.05
2023-05-19T07:25:30.672Z,27.76
2023-05-19T07:26:30.669Z,10.45
2023-05-19T07:27:30.642Z,16.02
2023-05-19T07:28:30.690Z,31.35
2023-05-19T07:29:30.621Z,67.90
2023-05-19T07:30:30.808Z,83.33
2023-05-19T07:31:30.675Z,60.05
2023-05-19T07:32:30.617Z,27.06
2023-05-19T07:33:30.584Z,25.00
2023-05-19T07:34:30.595Z,37.78
2023-05-19T07:35:30.563Z,71.57
2023-05-19T07:36:30.593Z,90.44
2023-05-19T07:37:30.556Z,86.78
2023-05-19T07:38:30.577Z,80.24
2023-05-19T07:39:30.535Z,80.62
2023-05-19T07:40:30.744Z,84.20
2023-05-19T07:41:30.528Z,93.61
2023-05-19T07:42:30.523Z,116.83
2023-05-19T07:43:30.521Z,125.25
2023-05-19T07:44:30.530Z,131.21
2023-05-19T07:45:30.498Z,142.70
2023-05-19T07:46:30.598Z,149.43
2023-05-19T07:47:30.509Z,161.23
2023-05-19T07:48:30.495Z,154.07
2023-05-19T07:49:30.460Z,159.05
2023-05-19T07:50:30.592Z,167.14
2023-05-19T07:51:30.477Z,154.67
2023-05-19T07:52:30.459Z,186.04
2023-05-19T07:53:30.458Z,191.26
2023-05-19T07:54:30.454Z,187.68
2023-05-19T07:55:30.444Z,205.81
2023-05-19T07:56:30.434Z,211.79
2023-05-19T07:57:30.407Z,227.93
2023-05-19T07:58:30.413Z,251.00
2023-05-19T07:59:30.462Z,234.84
2023-05-19T08:00:30.543Z,213.23
2023-05-19T08:01:30.592Z,181.89
2023-05-19T08:02:30.636Z,127.64
2023-05-19T08:03:30.916Z,85.74
2023-05-19T08:04:30.770Z,61.57
2023-05-19T08:05:30.797Z,27.03
2023-05-19T08:06:30.908Z,21.23
2023-05-19T08:07:30.880Z,22.50
2023-05-19T08:08:30.940Z,25.00
2023-05-19T08:09:30.993Z,24.93
2023-05-19T08:10:31.361Z,28.89
2023-05-19T08:11:31.083Z,23.42
2023-05-19T08:12:31.148Z,42.92
2023-05-19T08:13:31.199Z,69.58
2023-05-19T08:14:31.229Z,59.17
2023-05-19T08:15:31.295Z,47.48
2023-05-19T08:16:31.367Z,31.10
2023-05-19T08:17:31.358Z,25.88
2023-05-19T08:18:31.418Z,32.04
2023-05-19T08:19:31.458Z,27.35
2023-05-19T08:20:31.594Z,28.56
2023-05-19T08:21:31.486Z,44.54
2023-05-19T08:22:31.457Z,62.26
2023-05-19T08:23:31.465Z,90.27
2023-05-19T08:24:31.480Z,110.28
2023-05-19T08:25:31.462Z,136.29
2023-05-19T08:26:31.496Z,147.62
2023-05-19T08:27:31.490Z,144.86
2023-05-19T08:28:31.498Z,151.74
2023-05-19T08:29:31.525Z,158.32
2023-05-19T08:30:31.742Z,167.76
2023-05-19T08:31:31.663Z,160.38
2023-05-19T08:32:31.691Z,156.54
2023-05-19T08:33:31.685Z,155.63
2023-05-19T08:34:31.699Z,155.03
2023-05-19T08:35:31.771Z,153.78
2023-05-19T08:36:31.730Z,142.85
2023-05-19T08:37:33.355Z,141.42
2023-05-19T08:38:31.724Z,142.58
2023-05-19T08:39:31.727Z,173.24
2023-05-19T08:40:32.026Z,198.67
2023-05-19T08:41:31.766Z,215.88
2023-05-19T08:42:31.729Z,217.84
2023-05-19T08:43:31.751Z,236.93
2023-05-19T08:44:31.746Z,249.26
2023-05-19T08:45:31.939Z,250.41
2023-05-19T08:46:31.806Z,251.81
2023-05-19T08:47:31.779Z,251.36
2023-05-19T08:48:31.757Z,242.24
2023-05-19T08:49:31.777Z,237.62
2023-05-19T08:50:31.942Z,238.41
2023-05-19T08:51:31.759Z,233.39
2023-05-19T08:52:31.763Z,230.50
2023-05-19T08:53:34.219Z,224.95
2023-05-19T08:54:31.760Z,216.07
2023-05-19T08:55:31.942Z,218.45
2023-05-19T08:56:31.756Z,221.26
2023-05-19T08:57:31.766Z,220.94
2023-05-19T08:58:31.731Z,224.04
2023-05-19T08:59:31.733Z,212.38
2023-05-19T09:00:31.974Z,198.68
2023-05-19T09:01:31.835Z,186.96
2023-05-19T09:02:31.741Z,169.57
2023-05-19T09:03:31.772Z,159.78
2023-05-19T09:04:31.759Z,156.23
2023-05-19T09:05:31.954Z,155.56
2023-05-19T09:06:31.709Z,157.49
2023-05-19T09:07:31.698Z,152.88
2023-05-19T09:08:31.689Z,160.69
2023-05-19T09:09:31.658Z,169.50
2023-05-19T09:10:31.669Z,173.80
2023-05-19T09:11:31.654Z,176.74
2023-05-19T09:12:31.678Z,189.50
2023-05-19T09:13:31.673Z,183.42
2023-05-19T09:14:31.642Z,183.34
2023-05-19T09:15:31.882Z,189.88
2023-05-19T09:16:31.664Z,175.79
2023-05-19T09:17:31.684Z,162.41
2023-05-19T09:18:31.600Z,153.65
2023-05-19T09:19:31.620Z,154.73
2023-05-19T09:20:31.594Z,154.19
2023-05-19T09:21:31.652Z,143.72
2023-05-19T09:22:31.600Z,146.15
2023-05-19T09:23:31.572Z,145.33
2023-05-19T09:24:31.558Z,150.90
2023-05-19T09:25:31.775Z,148.61
2023-05-19T09:26:31.536Z,139.68
2023-05-19T09:27:31.569Z,130.66
2023-05-19T09:28:31.547Z,133.23
2023-05-19T09:29:31.539Z,132.28
2023-05-19T09:30:31.532Z,144.15
2023-05-19T09:31:31.556Z,150.55
2023-05-19T09:32:31.597Z,163.44
2023-05-19T09:33:31.521Z,175.09
2023-05-19T09:34:31.518Z,177.63
2023-05-19T09:35:31.585Z,164.38
2023-05-19T09:36:31.491Z,157.51
2023-05-19T09:37:31.484Z,158.52
2023-05-19T09:38:31.460Z,156.98
2023-05-19T09:39:31.456Z,142.26
2023-05-19T09:40:31.445Z,138.27
2023-05-19T09:41:31.454Z,122.59
2023-05-19T09:42:31.526Z,109.53
2023-05-19T09:43:31.436Z,99.93
2023-05-19T09:44:31.434Z,110.78
2023-05-19T09:45:31.669Z,119.24
2023-05-19T09:46:31.490Z,128.92
2023-05-19T09:47:31.421Z,137.62
2023-05-19T09:48:31.426Z,155.80
2023-05-19T09:49:31.457Z,167.82
2023-05-19T09:50:31.413Z,167.09
2023-05-19T09:51:31.381Z,179.08
2023-05-19T09:52:31.370Z,167.55
2023-05-19T09:53:31.399Z,138.57
2023-05-19T09:54:31.372Z,121.02
2023-05-19T09:55:31.459Z,120.99
2023-05-19T09:56:31.336Z,123.96
2023-05-19T09:57:31.337Z,113.79
2023-05-19T09:58:31.337Z,102.54
2023-05-19T09:59:33.470Z,96.11
2023-05-19T10:00:31.616Z,92.21
2023-05-19T10:01:31.591Z,95.38
2023-05-19T10:02:31.616Z,103.77
2023-05-19T10:03:31.615Z,109.81
2023-05-19T10:04:31.752Z,116.17
2023-05-19T10:05:31.893Z,120.16
2023-05-19T10:06:31.779Z,122.20
2023-05-19T10:07:31.874Z,118.54
2023-05-19T10:08:31.958Z,113.91
2023-05-19T10:09:31.973Z,103.04
2023-05-19T10:10:32.049Z,104.77
2023-05-19T10:11:32.083Z,111.48
2023-05-19T10:12:32.145Z,110.94
2023-05-19T10:13:32.176Z,108.93
2023-05-19T10:14:32.177Z,106.47
2023-05-19T10:15:33.156Z,111.12
2023-05-19T10:16:32.204Z,110.24
2023-05-19T10:17:32.237Z,112.47
2023-05-19T10:18:32.157Z,111.33
2023-05-19T10:19:32.276Z,98.63
2023-05-19T10:20:32.357Z,94.54
2023-05-19T10:21:32.136Z,93.43
2023-05-19T10:22:32.145Z,93.42
2023-05-19T10:23:32.149Z,93.28
2023-05-19T10:24:32.110Z,91.58
2023-05-19T10:25:32.295Z,94.44
2023-05-19T10:26:32.111Z,110.99
2023-05-19T10:27:32.084Z,127.17
2023-05-19T10:28:32.071Z,137.15
2023-05-19T10:29:32.097Z,126.04
2023-05-19T10:30:32.088Z,113.69
2023-05-19T10:31:32.153Z,104.76
2023-05-19T10:32:32.153Z,106.22
2023-05-19T10:33:32.040Z,108.52
2023-05-19T10:34:32.061Z,105.61
2023-05-19T10:35:32.543Z,104.86
2023-05-19T10:36:32.058Z,102.23
2023-05-19T10:37:32.034Z,99.19
2023-05-19T10:38:32.022Z,94.28
2023-05-19T10:39:31.998Z,74.42
2023-05-19T10:40:31.998Z,63.34
2023-05-19T10:41:32.041Z,56.54
2023-05-19T10:42:31.998Z,67.99
2023-05-19T10:43:31.990Z,86.94
2023-05-19T10:44:31.989Z,104.88
2023-05-19T10:45:32.180Z,104.72
2023-05-19T10:46:32.134Z,101.77
2023-05-19T10:47:31.982Z,75.85
2023-05-19T10:48:31.940Z,68.63
2023-05-19T10:49:31.939Z,51.43
2023-05-19T10:50:31.949Z,32.53
2023-05-19T10:51:31.953Z,29.32
2023-05-19T10:52:31.914Z,24.26
2023-05-19T10:53:31.931Z,25.53
2023-05-19T10:54:31.916Z,30.78
2023-05-19T10:55:32.073Z,24.66
2023-05-19T10:56:31.974Z,26.56
2023-05-19T10:57:32.020Z,33.75
2023-05-19T10:58:32.008Z,35.01
2023-05-19T10:59:32.091Z,35.23
2023-05-19T11:00:32.074Z,42.86
2023-05-19T11:01:32.063Z,46.81
2023-05-19T11:02:32.163Z,53.42
2023-05-19T11:03:32.217Z,60.39
2023-05-19T11:04:32.338Z,58.60
2023-05-19T11:05:32.525Z,40.78
2023-05-19T11:06:32.384Z,33.53
2023-05-19T11:07:32.417Z,53.46
2023-05-19T11:08:32.442Z,59.54
2023-05-19T11:09:39.864Z,63.97
2023-05-19T11:10:33.484Z,64.13
2023-05-19T11:11:33.214Z,65.57
2023-05-19T11:12:32.459Z,68.10
2023-05-19T11:13:32.440Z,70.17
2023-05-19T11:14:32.446Z,74.02
2023-05-19T11:15:32.630Z,73.95
2023-05-19T11:16:32.537Z,71.44
2023-05-19T11:17:33.215Z,70.45
2023-05-19T11:18:32.432Z,60.66
2023-05-19T11:19:32.395Z,60.59
2023-05-19T11:20:32.402Z,68.27
2023-05-19T11:21:32.506Z,71.65
2023-05-19T11:22:32.445Z,74.30
2023-05-19T11:23:33.477Z,83.45
2023-05-19T11:24:32.476Z,81.66
2023-05-19T11:25:32.585Z,77.69
2023-05-19T11:26:32.456Z,76.74
2023-05-19T11:27:32.436Z,82.21
2023-05-19T11:28:32.421Z,75.48
2023-05-19T11:29:34.212Z,68.57
2023-05-19T11:30:32.419Z,64.37
2023-05-19T11:31:32.424Z,58.11
2023-05-19T11:32:32.528Z,51.11
2023-05-19T11:33:32.394Z,46.75
2023-05-19T11:34:32.400Z,37.74
2023-05-19T11:35:34.683Z,34.34
2023-05-19T11:36:32.402Z,46.20
2023-05-19T11:37:32.434Z,52.09
2023-05-19T11:38:32.394Z,56.38
2023-05-19T11:39:32.369Z,58.71
2023-05-19T11:40:32.361Z,68.94
2023-05-19T11:41:32.362Z,69.66
2023-05-19T11:42:32.415Z,74.74
2023-05-19T11:43:32.341Z,80.43
2023-05-19T11:44:32.363Z,71.23
2023-05-19T11:45:32.512Z,50.44
2023-05-19T11:46:32.356Z,46.75
2023-05-19T11:47:42.064Z,48.40
2023-05-19T11:48:33.348Z,41.15
2023-05-19T11:49:32.289Z,37.21
2023-05-19T11:50:32.312Z,38.58
2023-05-19T11:51:32.286Z,26.42
2023-05-19T11:52:32.297Z,22.29
2023-05-19T11:53:33.470Z,27.26
2023-05-19T11:54:32.276Z,28.21
2023-05-19T11:55:32.294Z,33.62
2023-05-19T11:56:32.234Z,31.96
2023-05-19T11:57:32.268Z,36.24
2023-05-19T11:58:32.230Z,36.49
2023-05-19T11:59:33.503Z,45.48
2023-05-19T12:00:32.234Z,41.27
2023-05-19T12:01:32.195Z,37.76
2023-05-19T12:02:32.292Z,44.09
2023-05-19T12:03:32.236Z,49.32
2023-05-19T12:04:32.248Z,51.66
2023-05-19T12:05:34.934Z,58.96
2023-05-19T12:06:33.277Z,52.82
2023-05-19T12:07:32.153Z,52.72
2023-05-19T12:08:32.166Z,59.90
2023-05-19T12:09:32.158Z,66.40
2023-05-19T12:10:32.141Z,81.31
2023-05-19T12:11:32.137Z,81.73
2023-05-19T12:12:32.132Z,94.08
2023-05-19T12:13:32.120Z,99.22
2023-05-19T12:14:32.140Z,92.77
2023-05-19T12:15:32.226Z,87.36
2023-05-19T12:16:33.436Z,94.80
2023-05-19T12:17:32.105Z,99.09
2023-05-19T12:18:32.156Z,92.28
2023-05-19T12:19:32.249Z,88.23
2023-05-19T12:20:32.290Z,93.75
2023-05-19T12:21:33.956Z,109.48
2023-05-19T12:22:32.365Z,128.06
2023-05-19T12:23:32.408Z,127.35
2023-05-19T12:24:32.473Z,115.09
2023-05-19T12:25:32.915Z,107.83
2023-05-19T12:26:32.574Z,100.75
2023-05-19T12:27:34.754Z,92.79
2023-05-19T12:28:32.678Z,105.19
2023-05-19T12:29:32.700Z,129.80
2023-05-19T12:30:33.640Z,137.11
2023-05-19T12:31:32.862Z,129.05
2023-05-19T12:32:32.893Z,123.41
2023-05-19T12:33:33.603Z,117.46
2023-05-19T12:34:32.875Z,94.01
2023-05-19T12:35:32.860Z,93.86
2023-05-19T12:36:32.867Z,90.88
2023-05-19T12:37:32.849Z,103.27
2023-05-19T12:38:32.865Z,112.80
2023-05-19T12:39:32.835Z,117.87
2023-05-19T12:40:33.104Z,112.24
2023-05-19T12:41:32.823Z,102.44